Terminal Aerodrome Forecast
Issued by NWS

Home | Current Version | Previous Version | Graphics & Text | Print | Product List | Glossary On
Versions: 1 2 3 4 5 6 7 8 9 10 11 12 13 14 15 16 17 18 19 20
916
FTUS41 KCLE 150532
TAFFDY
TAF
KFDY 150532Z 1506/1606 14006KT P6SM OVC120
     FM150800 14007KT P6SM VCSH OVC060
     FM151000 14008KT 3SM -SN OVC025
     FM151500 15011KT 1 1/2SM -SN OVC015
     FM152100 19009KT 2SM -SN OVC010
     FM160000 22009KT P6SM OVC010=

USA.gov is the U.S. government's official web portal to all federal, state and local government web resources and services.